Leakey, Texas
Current Conditions -  °F | °C
As of 3:50 PM on Wednesday 28 Jan 2015 (Local Time) from KECU Reporting Station
Clear Clear  
Wind Chill: 77°   Ceiling: Unl
Heat Index: 77°   Visibility: 10mi
Dew Point: 34°   Wind: 13mph
Humidity: 21%   Direction: 180°S
Pressure: 30.11"   Gusts: 17mph
Location:  29.73°N, 99.76°W
Report Text: KECU 282150Z AUTO 18011G15KT 10SM CLR 25/01 A3011 RMK AO2
Loading
Personal Weather Stations






























Interactive Weather Map New forecast layout! Learn more

10-Day Weather Forecast

Advertisements
Track Severe Weather on mobile